sensor_id;sensor_type;location;lat;lon;timestamp;pressure;altitude;pressure_sealevel;temperature;humidity
71299;BME280;59083;47.974;21.722;2022-11-20T00:01:40;100230.44;;;0.59;94.70
71299;BME280;59083;47.974;21.722;2022-11-20T00:04:42;100208.66;;;0.59;94.93
71299;BME280;59083;47.974;21.722;2022-11-20T00:07:43;100204.56;;;0.66;94.06
71299;BME280;59083;47.974;21.722;2022-11-20T00:10:44;100206.47;;;0.64;94.32
71299;BME280;59083;47.974;21.722;2022-11-20T00:13:47;100203.34;;;0.49;94.71
71299;BME280;59083;47.974;21.722;2022-11-20T00:16:49;100195.09;;;0.54;94.84
71299;BME280;59083;47.974;21.722;2022-11-20T00:19:50;100201.22;;;0.64;94.66
71299;BME280;59083;47.974;21.722;2022-11-20T00:22:51;100201.66;;;0.69;94.20
71299;BME280;59083;47.974;21.722;2022-11-20T00:25:53;100201.16;;;0.75;94.19
71299;BME280;59083;47.974;21.722;2022-11-20T00:28:57;100207.13;;;0.77;94.19
71299;BME280;59083;47.974;21.722;2022-11-20T00:31:58;100212.88;;;0.71;94.55
71299;BME280;59083;47.974;21.722;2022-11-20T00:35:00;100199.13;;;0.78;94.38
71299;BME280;59083;47.974;21.722;2022-11-20T00:38:01;100223.03;;;0.64;94.90
71299;BME280;59083;47.974;21.722;2022-11-20T00:41:07;100212.88;;;0.71;94.96
71299;BME280;59083;47.974;21.722;2022-11-20T00:44:09;100207.25;;;0.55;95.53
71299;BME280;59083;47.974;21.722;2022-11-20T00:47:10;100222.19;;;0.64;95.53
71299;BME280;59083;47.974;21.722;2022-11-20T00:50:11;100223.47;;;0.49;95.96
71299;BME280;59083;47.974;21.722;2022-11-20T00:53:13;100241.84;;;0.69;95.69
71299;BME280;59083;47.974;21.722;2022-11-20T00:56:16;100256.50;;;0.72;95.75
71299;BME280;59083;47.974;21.722;2022-11-20T00:59:18;100251.97;;;0.74;95.28
71299;BME280;59083;47.974;21.722;2022-11-20T01:02:19;100251.25;;;0.72;95.55
71299;BME280;59083;47.974;21.722;2022-11-20T01:05:21;100252.41;;;0.79;95.68
71299;BME280;59083;47.974;21.722;2022-11-20T01:08:22;100250.53;;;0.70;95.42
71299;BME280;59083;47.974;21.722;2022-11-20T01:11:34;100251.50;;;0.69;95.30
71299;BME280;59083;47.974;21.722;2022-11-20T01:14:36;100250.47;;;0.81;95.48
71299;BME280;59083;47.974;21.722;2022-11-20T01:17:37;100254.59;;;0.74;95.52
71299;BME280;59083;47.974;21.722;2022-11-20T01:20:38;100242.16;;;0.76;95.64
71299;BME280;59083;47.974;21.722;2022-11-20T01:23:41;100236.06;;;0.75;95.75
71299;BME280;59083;47.974;21.722;2022-11-20T01:26:44;100220.16;;;0.88;95.53
71299;BME280;59083;47.974;21.722;2022-11-20T01:29:46;100208.50;;;0.81;95.65
71299;BME280;59083;47.974;21.722;2022-11-20T01:32:47;100204.69;;;0.85;95.57
71299;BME280;59083;47.974;21.722;2022-11-20T01:35:48;100211.84;;;0.83;95.83
71299;BME280;59083;47.974;21.722;2022-11-20T01:38:54;100194.44;;;0.82;96.22
71299;BME280;59083;47.974;21.722;2022-11-20T01:41:56;100197.25;;;0.90;95.83
71299;BME280;59083;47.974;21.722;2022-11-20T01:48:58;100211.56;;;0.86;96.02
71299;BME280;59083;47.974;21.722;2022-11-20T01:52:08;100209.41;;;0.91;95.64
71299;BME280;59083;47.974;21.722;2022-11-20T01:55:17;100202.34;;;0.92;95.85
71299;BME280;59083;47.974;21.722;2022-11-20T01:58:22;100178.50;;;0.95;95.51
71299;BME280;59083;47.974;21.722;2022-11-20T02:01:27;100176.31;;;1.00;95.26
71299;BME280;59083;47.974;21.722;2022-11-20T02:04:28;100179.06;;;0.98;95.15
71299;BME280;59083;47.974;21.722;2022-11-20T02:07:30;100175.75;;;0.96;94.92
71299;BME280;59083;47.974;21.722;2022-11-20T02:10:33;100172.59;;;1.02;94.85
71299;BME280;59083;47.974;21.722;2022-11-20T02:13:34;100175.22;;;1.02;94.17
71299;BME280;59083;47.974;21.722;2022-11-20T02:16:46;100161.66;;;0.97;94.71
71299;BME280;59083;47.974;21.722;2022-11-20T02:19:48;100146.47;;;0.91;94.78
71299;BME280;59083;47.974;21.722;2022-11-20T02:23:12;100137.59;;;0.92;94.93
71299;BME280;59083;47.974;21.722;2022-11-20T02:26:15;100144.00;;;0.99;95.29
71299;BME280;59083;47.974;21.722;2022-11-20T02:29:24;100136.66;;;0.93;95.18
71299;BME280;59083;47.974;21.722;2022-11-20T02:32:29;100139.69;;;0.98;94.85
71299;BME280;59083;47.974;21.722;2022-11-20T02:38:32;100127.00;;;0.94;95.18
71299;BME280;59083;47.974;21.722;2022-11-20T02:41:37;100128.78;;;0.93;95.37
71299;BME280;59083;47.974;21.722;2022-11-20T02:44:38;100139.28;;;0.93;95.44
71299;BME280;59083;47.974;21.722;2022-11-20T02:47:39;100136.13;;;0.99;95.08
71299;BME280;59083;47.974;21.722;2022-11-20T02:50:40;100134.34;;;1.00;94.69
71299;BME280;59083;47.974;21.722;2022-11-20T02:53:42;100128.53;;;0.96;94.67
71299;BME280;59083;47.974;21.722;2022-11-20T02:56:43;100121.56;;;0.86;94.84
71299;BME280;59083;47.974;21.722;2022-11-20T02:59:45;100111.66;;;0.89;94.73
71299;BME280;59083;47.974;21.722;2022-11-20T03:02:46;100109.75;;;0.91;94.38
71299;BME280;59083;47.974;21.722;2022-11-20T03:05:47;100111.66;;;0.89;94.92
71299;BME280;59083;47.974;21.722;2022-11-20T03:08:48;100101.59;;;0.94;94.51
71299;BME280;59083;47.974;21.722;2022-11-20T03:11:50;100084.03;;;0.85;94.66
71299;BME280;59083;47.974;21.722;2022-11-20T03:14:51;100104.31;;;0.83;94.81
71299;BME280;59083;47.974;21.722;2022-11-20T03:17:55;100097.84;;;0.87;94.64
71299;BME280;59083;47.974;21.722;2022-11-20T03:20:57;100099.81;;;0.95;94.57
71299;BME280;59083;47.974;21.722;2022-11-20T03:24:00;100104.22;;;0.94;94.63
71299;BME280;59083;47.974;21.722;2022-11-20T03:27:01;100098.69;;;0.97;94.72
71299;BME280;59083;47.974;21.722;2022-11-20T03:30:03;100085.44;;;0.89;94.62
71299;BME280;59083;47.974;21.722;2022-11-20T03:33:05;100078.94;;;0.93;94.58
71299;BME280;59083;47.974;21.722;2022-11-20T03:36:09;100083.22;;;0.94;94.54
71299;BME280;59083;47.974;21.722;2022-11-20T03:39:11;100084.31;;;0.92;94.55
71299;BME280;59083;47.974;21.722;2022-11-20T03:42:12;100084.63;;;0.98;94.30
71299;BME280;59083;47.974;21.722;2022-11-20T03:45:32;100094.84;;;1.01;94.19
71299;BME280;59083;47.974;21.722;2022-11-20T03:48:33;100089.34;;;1.04;93.77
71299;BME280;59083;47.974;21.722;2022-11-20T03:51:35;100095.53;;;1.03;93.83
71299;BME280;59083;47.974;21.722;2022-11-20T03:54:37;100101.50;;;1.05;93.78
71299;BME280;59083;47.974;21.722;2022-11-20T03:57:38;100099.56;;;1.07;93.53
71299;BME280;59083;47.974;21.722;2022-11-20T04:00:39;100106.47;;;1.08;93.53
71299;BME280;59083;47.974;21.722;2022-11-20T04:03:42;100105.03;;;0.85;93.69
71299;BME280;59083;47.974;21.722;2022-11-20T04:06:43;100108.84;;;0.81;94.30
71299;BME280;59083;47.974;21.722;2022-11-20T04:09:45;100093.72;;;0.94;94.26
71299;BME280;59083;47.974;21.722;2022-11-20T04:12:46;100098.13;;;0.94;93.79
71299;BME280;59083;47.974;21.722;2022-11-20T04:15:47;100102.72;;;1.01;93.77
71299;BME280;59083;47.974;21.722;2022-11-20T04:18:53;100106.75;;;1.05;93.50
71299;BME280;59083;47.974;21.722;2022-11-20T04:21:55;100091.53;;;1.09;93.47
71299;BME280;59083;47.974;21.722;2022-11-20T04:24:56;100106.62;;;1.16;94.01
71299;BME280;59083;47.974;21.722;2022-11-20T04:27:57;100100.72;;;1.24;93.22
71299;BME280;59083;47.974;21.722;2022-11-20T04:31:06;100095.72;;;1.11;93.57
71299;BME280;59083;47.974;21.722;2022-11-20T04:34:11;100096.25;;;1.05;93.51
71299;BME280;59083;47.974;21.722;2022-11-20T04:37:12;100086.81;;;0.93;93.66
71299;BME280;59083;47.974;21.722;2022-11-20T04:40:13;100080.22;;;1.08;93.66
71299;BME280;59083;47.974;21.722;2022-11-20T04:43:14;100066.97;;;1.10;93.98
71299;BME280;59083;47.974;21.722;2022-11-20T04:46:17;100065.47;;;1.07;93.86
71299;BME280;59083;47.974;21.722;2022-11-20T04:49:19;100076.50;;;1.11;93.62
71299;BME280;59083;47.974;21.722;2022-11-20T04:52:20;100072.81;;;1.13;93.30
71299;BME280;59083;47.974;21.722;2022-11-20T04:55:21;100063.94;;;1.14;93.17
71299;BME280;59083;47.974;21.722;2022-11-20T04:58:22;100058.03;;;1.12;93.30
71299;BME280;59083;47.974;21.722;2022-11-20T05:01:24;100049.03;;;1.05;93.26
71299;BME280;59083;47.974;21.722;2022-11-20T05:04:25;100051.53;;;1.16;93.00
71299;BME280;59083;47.974;21.722;2022-11-20T05:07:27;100052.06;;;1.10;93.34
71299;BME280;59083;47.974;21.722;2022-11-20T05:10:28;100040.87;;;1.08;92.99
71299;BME280;59083;47.974;21.722;2022-11-20T05:13:29;100047.25;;;1.15;93.29
71299;BME280;59083;47.974;21.722;2022-11-20T05:16:30;100053.03;;;1.09;93.21
71299;BME280;59083;47.974;21.722;2022-11-20T05:19:31;100051.81;;;1.13;93.03
71299;BME280;59083;47.974;21.722;2022-11-20T05:22:33;100047.63;;;1.01;93.28
71299;BME280;59083;47.974;21.722;2022-11-20T05:25:34;100038.25;;;1.08;93.72
71299;BME280;59083;47.974;21.722;2022-11-20T05:28:35;100037.28;;;1.09;93.64
71299;BME280;59083;47.974;21.722;2022-11-20T05:31:36;100033.09;;;0.97;93.46
71299;BME280;59083;47.974;21.722;2022-11-20T05:34:39;100029.41;;;0.90;93.91
71299;BME280;59083;47.974;21.722;2022-11-20T05:37:40;100011.16;;;0.89;93.97
71299;BME280;59083;47.974;21.722;2022-11-20T05:40:42;100023.84;;;0.83;94.22
71299;BME280;59083;47.974;21.722;2022-11-20T05:43:44;100007.59;;;0.99;94.20
71299;BME280;59083;47.974;21.722;2022-11-20T05:46:46;100011.72;;;0.92;94.28
71299;BME280;59083;47.974;21.722;2022-11-20T05:49:47;100011.88;;;0.91;94.23
71299;BME280;59083;47.974;21.722;2022-11-20T05:52:49;100021.66;;;0.98;94.50
71299;BME280;59083;47.974;21.722;2022-11-20T05:56:10;100023.06;;;1.02;94.41
71299;BME280;59083;47.974;21.722;2022-11-20T05:59:12;100025.25;;;0.97;94.25
71299;BME280;59083;47.974;21.722;2022-11-20T06:02:13;100026.91;;;0.98;94.29
71299;BME280;59083;47.974;21.722;2022-11-20T06:05:15;100042.53;;;1.09;93.84
71299;BME280;59083;47.974;21.722;2022-11-20T06:08:16;100040.31;;;1.14;94.83
71299;BME280;59083;47.974;21.722;2022-11-20T06:11:17;100025.56;;;1.13;93.74
71299;BME280;59083;47.974;21.722;2022-11-20T06:14:18;100010.09;;;1.10;94.07
71299;BME280;59083;47.974;21.722;2022-11-20T06:17:20;100017.53;;;1.15;94.04
71299;BME280;59083;47.974;21.722;2022-11-20T06:20:21;100033.00;;;1.08;94.04
71299;BME280;59083;47.974;21.722;2022-11-20T06:23:23;100021.69;;;1.17;94.17
71299;BME280;59083;47.974;21.722;2022-11-20T06:26:26;100016.72;;;1.14;94.22
71299;BME280;59083;47.974;21.722;2022-11-20T06:29:28;100018.91;;;1.09;93.87
71299;BME280;59083;47.974;21.722;2022-11-20T06:32:29;100001.09;;;1.03;94.25
71299;BME280;59083;47.974;21.722;2022-11-20T06:35:31;99990.75;;;1.21;93.99
71299;BME280;59083;47.974;21.722;2022-11-20T06:38:32;100005.66;;;1.20;93.88
71299;BME280;59083;47.974;21.722;2022-11-20T06:41:33;100001.25;;;1.21;93.92
71299;BME280;59083;47.974;21.722;2022-11-20T06:44:34;100013.00;;;1.27;93.89
71299;BME280;59083;47.974;21.722;2022-11-20T06:47:36;100017.56;;;1.24;93.80
71299;BME280;59083;47.974;21.722;2022-11-20T06:50:37;100023.91;;;1.32;93.50
71299;BME280;59083;47.974;21.722;2022-11-20T06:53:39;100017.69;;;1.33;93.74
71299;BME280;59083;47.974;21.722;2022-11-20T06:56:40;100011.50;;;1.34;93.54
71299;BME280;59083;47.974;21.722;2022-11-20T06:59:41;100018.97;;;1.48;93.29
71299;BME280;59083;47.974;21.722;2022-11-20T07:02:42;100008.19;;;1.41;93.52
71299;BME280;59083;47.974;21.722;2022-11-20T07:05:44;100017.31;;;1.47;93.05
71299;BME280;59083;47.974;21.722;2022-11-20T07:08:46;100020.06;;;1.45;93.07
71299;BME280;59083;47.974;21.722;2022-11-20T07:11:48;100018.38;;;1.54;93.05
71299;BME280;59083;47.974;21.722;2022-11-20T07:14:49;100031.94;;;1.59;93.30
71299;BME280;59083;47.974;21.722;2022-11-20T07:17:50;100021.97;;;1.72;93.31
71299;BME280;59083;47.974;21.722;2022-11-20T07:20:52;100021.72;;;1.75;93.02
71299;BME280;59083;47.974;21.722;2022-11-20T07:23:53;100034.94;;;1.83;92.91
71299;BME280;59083;47.974;21.722;2022-11-20T07:26:54;100030.41;;;1.85;93.03
71299;BME280;59083;47.974;21.722;2022-11-20T07:29:56;100013.94;;;1.83;92.44
71299;BME280;59083;47.974;21.722;2022-11-20T07:32:57;100015.47;;;1.86;92.41
71299;BME280;59083;47.974;21.722;2022-11-20T07:35:59;99998.16;;;2.02;91.96
71299;BME280;59083;47.974;21.722;2022-11-20T07:39:01;99992.59;;;2.05;91.51
71299;BME280;59083;47.974;21.722;2022-11-20T07:42:02;99992.84;;;2.12;91.17
71299;BME280;59083;47.974;21.722;2022-11-20T07:45:03;99997.56;;;2.08;90.83
71299;BME280;59083;47.974;21.722;2022-11-20T07:48:05;99986.19;;;2.18;90.73
71299;BME280;59083;47.974;21.722;2022-11-20T07:51:06;99998.72;;;1.96;91.38
71299;BME280;59083;47.974;21.722;2022-11-20T07:54:07;100002.69;;;2.00;91.45
71299;BME280;59083;47.974;21.722;2022-11-20T07:57:08;100005.56;;;2.17;91.70
71299;BME280;59083;47.974;21.722;2022-11-20T08:00:11;100006.66;;;2.24;91.63
71299;BME280;59083;47.974;21.722;2022-11-20T08:03:13;100013.44;;;2.17;91.67
71299;BME280;59083;47.974;21.722;2022-11-20T08:06:17;100017.97;;;2.34;91.61
71299;BME280;59083;47.974;21.722;2022-11-20T08:09:20;100039.03;;;2.24;91.34
71299;BME280;59083;47.974;21.722;2022-11-20T08:12:22;100049.50;;;2.34;90.92
71299;BME280;59083;47.974;21.722;2022-11-20T08:15:48;100025.66;;;2.45;90.66
71299;BME280;59083;47.974;21.722;2022-11-20T08:18:50;100012.12;;;2.40;90.77
71299;BME280;59083;47.974;21.722;2022-11-20T08:21:51;100006.28;;;2.46;90.95
71299;BME280;59083;47.974;21.722;2022-11-20T08:24:52;100002.13;;;2.53;90.71
71299;BME280;59083;47.974;21.722;2022-11-20T08:27:53;99996.56;;;2.56;90.43
71299;BME280;59083;47.974;21.722;2022-11-20T08:30:59;100002.63;;;2.66;90.19
71299;BME280;59083;47.974;21.722;2022-11-20T08:34:01;100001.12;;;2.81;89.54
71299;BME280;59083;47.974;21.722;2022-11-20T08:37:02;99997.78;;;2.89;89.34
71299;BME280;59083;47.974;21.722;2022-11-20T08:40:04;99997.12;;;3.05;88.86
71299;BME280;59083;47.974;21.722;2022-11-20T08:43:05;100025.50;;;2.83;90.01
71299;BME280;59083;47.974;21.722;2022-11-20T08:46:06;100021.59;;;2.87;89.94
71299;BME280;59083;47.974;21.722;2022-11-20T08:49:10;100015.75;;;2.94;90.02
71299;BME280;59083;47.974;21.722;2022-11-20T08:52:11;100021.56;;;3.15;89.35
71299;BME280;59083;47.974;21.722;2022-11-20T08:55:13;100017.00;;;3.17;89.66
71299;BME280;59083;47.974;21.722;2022-11-20T08:58:14;100012.19;;;3.30;88.94
71299;BME280;59083;47.974;21.722;2022-11-20T09:01:15;100017.28;;;3.31;88.27
71299;BME280;59083;47.974;21.722;2022-11-20T09:04:16;100011.19;;;3.13;88.17
71299;BME280;59083;47.974;21.722;2022-11-20T09:07:17;100014.97;;;3.28;87.87
71299;BME280;59083;47.974;21.722;2022-11-20T09:10:19;100006.31;;;3.18;87.89
71299;BME280;59083;47.974;21.722;2022-11-20T09:13:21;100014.72;;;3.22;88.38
71299;BME280;59083;47.974;21.722;2022-11-20T09:16:23;100033.41;;;3.46;87.92
71299;BME280;59083;47.974;21.722;2022-11-20T09:19:24;100040.41;;;3.55;88.46
71299;BME280;59083;47.974;21.722;2022-11-20T09:22:25;100035.81;;;3.57;88.03
71299;BME280;59083;47.974;21.722;2022-11-20T09:25:27;100026.63;;;3.61;87.36
71299;BME280;59083;47.974;21.722;2022-11-20T09:28:28;100021.34;;;3.61;87.56
71299;BME280;59083;47.974;21.722;2022-11-20T09:31:29;100032.41;;;3.65;88.08
71299;BME280;59083;47.974;21.722;2022-11-20T09:34:31;100030.94;;;3.88;87.60
71299;BME280;59083;47.974;21.722;2022-11-20T09:37:32;100032.63;;;3.71;86.70
71299;BME280;59083;47.974;21.722;2022-11-20T09:40:35;100038.81;;;3.80;86.92
71299;BME280;59083;47.974;21.722;2022-11-20T09:43:58;100033.75;;;3.87;87.26
71299;BME280;59083;47.974;21.722;2022-11-20T09:47:08;100038.62;;;3.82;87.60
71299;BME280;59083;47.974;21.722;2022-11-20T09:57:23;100030.41;;;4.02;86.46
71299;BME280;59083;47.974;21.722;2022-11-20T10:00:27;100019.75;;;4.12;85.56
71299;BME280;59083;47.974;21.722;2022-11-20T10:07:02;100038.03;;;4.39;85.69
71299;BME280;59083;47.974;21.722;2022-11-20T10:10:15;100061.50;;;4.50;85.20
71299;BME280;59083;47.974;21.722;2022-11-20T10:23:45;100008.94;;;4.57;81.34
71299;BME280;59083;47.974;21.722;2022-11-20T10:30:28;99995.97;;;4.64;80.93
71299;BME280;59083;47.974;21.722;2022-11-20T10:33:36;99995.03;;;4.81;81.65
71299;BME280;59083;47.974;21.722;2022-11-20T10:37:08;99988.09;;;4.80;81.40
71299;BME280;59083;47.974;21.722;2022-11-20T10:40:21;99993.91;;;4.83;80.79
71299;BME280;59083;47.974;21.722;2022-11-20T10:43:33;99998.69;;;4.96;79.98
71299;BME280;59083;47.974;21.722;2022-11-20T10:46:41;100001.38;;;5.04;80.32
71299;BME280;59083;47.974;21.722;2022-11-20T10:49:55;100003.97;;;4.96;80.91
71299;BME280;59083;47.974;21.722;2022-11-20T10:56:46;100009.97;;;5.06;81.07
71299;BME280;59083;47.974;21.722;2022-11-20T11:03:01;99984.19;;;4.92;80.79
71299;BME280;59083;47.974;21.722;2022-11-20T11:06:10;99975.97;;;5.11;79.82
71299;BME280;59083;47.974;21.722;2022-11-20T11:09:20;99982.94;;;5.28;79.76
71299;BME280;59083;47.974;21.722;2022-11-20T11:12:24;99994.00;;;5.40;79.12
71299;BME280;59083;47.974;21.722;2022-11-20T11:15:39;99997.78;;;5.37;79.44
71299;BME280;59083;47.974;21.722;2022-11-20T11:18:41;99993.87;;;5.58;78.77
71299;BME280;59083;47.974;21.722;2022-11-20T11:21:52;99997.31;;;5.50;78.50
71299;BME280;59083;47.974;21.722;2022-11-20T11:24:54;99994.19;;;5.47;78.69
71299;BME280;59083;47.974;21.722;2022-11-20T11:27:59;99986.91;;;5.65;78.35
71299;BME280;59083;47.974;21.722;2022-11-20T11:31:00;99976.00;;;5.60;78.18
71299;BME280;59083;47.974;21.722;2022-11-20T11:34:15;99963.94;;;5.65;78.78
71299;BME280;59083;47.974;21.722;2022-11-20T11:37:19;99969.06;;;5.59;78.99
71299;BME280;59083;47.974;21.722;2022-11-20T11:40:22;99970.72;;;5.60;78.93
71299;BME280;59083;47.974;21.722;2022-11-20T11:43:30;99991.19;;;5.82;78.20
71299;BME280;59083;47.974;21.722;2022-11-20T11:46:53;99993.87;;;5.90;78.10
71299;BME280;59083;47.974;21.722;2022-11-20T11:53:14;99988.59;;;5.90;78.53
71299;BME280;59083;47.974;21.722;2022-11-20T11:56:17;99979.66;;;5.91;78.78
71299;BME280;59083;47.974;21.722;2022-11-20T11:59:27;99971.53;;;5.93;79.33
71299;BME280;59083;47.974;21.722;2022-11-20T12:02:41;99968.41;;;5.97;78.77
71299;BME280;59083;47.974;21.722;2022-11-20T12:05:55;99966.06;;;6.10;79.03
71299;BME280;59083;47.974;21.722;2022-11-20T12:09:11;99955.97;;;6.14;78.62
71299;BME280;59083;47.974;21.722;2022-11-20T12:12:18;99957.44;;;6.16;78.67
71299;BME280;59083;47.974;21.722;2022-11-20T12:15:26;99954.50;;;6.11;79.94
71299;BME280;59083;47.974;21.722;2022-11-20T12:18:30;99937.78;;;6.11;79.71
71299;BME280;59083;47.974;21.722;2022-11-20T12:21:45;99948.88;;;6.06;79.97
71299;BME280;59083;47.974;21.722;2022-11-20T12:25:12;99956.81;;;6.06;80.04
71299;BME280;59083;47.974;21.722;2022-11-20T12:28:33;99957.84;;;5.97;80.44
71299;BME280;59083;47.974;21.722;2022-11-20T12:38:37;99952.84;;;6.10;80.45
71299;BME280;59083;47.974;21.722;2022-11-20T12:41:56;99961.78;;;6.09;80.66
71299;BME280;59083;47.974;21.722;2022-11-20T12:45:48;99974.50;;;6.06;81.46
71299;BME280;59083;47.974;21.722;2022-11-20T12:52:38;99974.31;;;6.23;81.52
71299;BME280;59083;47.974;21.722;2022-11-20T13:06:20;99967.97;;;6.33;82.39
71299;BME280;59083;47.974;21.722;2022-11-20T13:09:23;99959.78;;;6.11;82.97
71299;BME280;59083;47.974;21.722;2022-11-20T13:12:30;99965.38;;;6.25;82.81
71299;BME280;59083;47.974;21.722;2022-11-20T13:18:39;99982.91;;;6.26;83.52
71299;BME280;59083;47.974;21.722;2022-11-20T13:21:48;99969.69;;;6.17;84.37
71299;BME280;59083;47.974;21.722;2022-11-20T13:24:53;99965.41;;;6.08;84.85
71299;BME280;59083;47.974;21.722;2022-11-20T13:27:56;99956.50;;;6.09;84.94
71299;BME280;59083;47.974;21.722;2022-11-20T13:30:58;99949.56;;;6.08;85.26
71299;BME280;59083;47.974;21.722;2022-11-20T13:34:02;99959.62;;;6.05;85.48
71299;BME280;59083;47.974;21.722;2022-11-20T13:37:05;99954.53;;;6.03;85.16
71299;BME280;59083;47.974;21.722;2022-11-20T13:46:40;99960.12;;;6.00;86.70
71299;BME280;59083;47.974;21.722;2022-11-20T13:49:42;99960.47;;;5.97;87.79
71299;BME280;59083;47.974;21.722;2022-11-20T13:53:03;99946.59;;;5.95;87.97
71299;BME280;59083;47.974;21.722;2022-11-20T13:56:18;99944.94;;;5.94;87.86
71299;BME280;59083;47.974;21.722;2022-11-20T14:02:37;99943.13;;;5.87;89.67
71299;BME280;59083;47.974;21.722;2022-11-20T14:05:49;99942.63;;;5.83;89.91
71299;BME280;59083;47.974;21.722;2022-11-20T14:08:52;99955.53;;;5.86;90.21
71299;BME280;59083;47.974;21.722;2022-11-20T14:11:53;99950.22;;;5.86;90.59
71299;BME280;59083;47.974;21.722;2022-11-20T14:14:54;99941.97;;;5.89;90.36
71299;BME280;59083;47.974;21.722;2022-11-20T14:17:57;99951.53;;;5.82;90.84
71299;BME280;59083;47.974;21.722;2022-11-20T14:21:00;99945.09;;;5.76;90.62
71299;BME280;59083;47.974;21.722;2022-11-20T14:24:09;99952.88;;;5.78;90.87
71299;BME280;59083;47.974;21.722;2022-11-20T14:27:17;99967.09;;;5.69;91.96
71299;BME280;59083;47.974;21.722;2022-11-20T14:30:22;99963.78;;;5.59;92.65
71299;BME280;59083;47.974;21.722;2022-11-20T14:33:26;99956.53;;;5.61;92.49
71299;BME280;59083;47.974;21.722;2022-11-20T14:36:28;99960.50;;;5.57;92.98
71299;BME280;59083;47.974;21.722;2022-11-20T14:39:35;99966.44;;;5.51;93.52
71299;BME280;59083;47.974;21.722;2022-11-20T14:42:37;99956.19;;;5.31;94.29
71299;BME280;59083;47.974;21.722;2022-11-20T14:45:46;99976.84;;;5.44;94.18
71299;BME280;59083;47.974;21.722;2022-11-20T14:48:52;99980.97;;;5.47;94.20
71299;BME280;59083;47.974;21.722;2022-11-20T14:52:09;99979.31;;;5.46;94.52
71299;BME280;59083;47.974;21.722;2022-11-20T14:55:13;99978.50;;;5.45;94.51
71299;BME280;59083;47.974;21.722;2022-11-20T14:58:30;99969.06;;;5.43;94.99
71299;BME280;59083;47.974;21.722;2022-11-20T15:01:33;99980.16;;;5.46;94.83
71299;BME280;59083;47.974;21.722;2022-11-20T15:04:48;99973.03;;;5.38;95.81
71299;BME280;59083;47.974;21.722;2022-11-20T15:08:07;99976.34;;;5.40;95.39
71299;BME280;59083;47.974;21.722;2022-11-20T15:11:22;99985.56;;;5.36;96.18
71299;BME280;59083;47.974;21.722;2022-11-20T15:14:27;100000.44;;;5.29;96.72
71299;BME280;59083;47.974;21.722;2022-11-20T15:17:30;99999.44;;;5.22;96.94
71299;BME280;59083;47.974;21.722;2022-11-20T15:20:33;100004.38;;;5.25;96.91
71299;BME280;59083;47.974;21.722;2022-11-20T15:23:34;100007.03;;;5.17;97.03
71299;BME280;59083;47.974;21.722;2022-11-20T15:26:37;100015.59;;;5.19;96.92
71299;BME280;59083;47.974;21.722;2022-11-20T15:29:40;100006.37;;;5.23;96.53
71299;BME280;59083;47.974;21.722;2022-11-20T15:32:43;99995.28;;;5.20;96.20
71299;BME280;59083;47.974;21.722;2022-11-20T15:35:45;99992.13;;;5.08;96.40
71299;BME280;59083;47.974;21.722;2022-11-20T15:38:46;99997.41;;;5.08;96.51
71299;BME280;59083;47.974;21.722;2022-11-20T15:41:48;99997.09;;;5.11;96.16
71299;BME280;59083;47.974;21.722;2022-11-20T15:44:50;100000.37;;;5.13;96.34
71299;BME280;59083;47.974;21.722;2022-11-20T15:47:51;99989.69;;;5.07;96.52
71299;BME280;59083;47.974;21.722;2022-11-20T15:50:59;99995.06;;;4.97;96.48
71299;BME280;59083;47.974;21.722;2022-11-20T15:54:12;99997.41;;;5.00;96.21
71299;BME280;59083;47.974;21.722;2022-11-20T15:57:14;99997.06;;;4.95;96.00
71299;BME280;59083;47.974;21.722;2022-11-20T16:00:15;99992.78;;;4.94;95.78
71299;BME280;59083;47.974;21.722;2022-11-20T16:03:18;99999.66;;;4.87;95.93
71299;BME280;59083;47.974;21.722;2022-11-20T16:06:19;99999.66;;;4.87;95.64
71299;BME280;59083;47.974;21.722;2022-11-20T16:09:21;99998.47;;;4.73;94.59
71299;BME280;59083;47.974;21.722;2022-11-20T16:12:23;100013.66;;;4.79;94.15
71299;BME280;59083;47.974;21.722;2022-11-20T16:15:53;100011.50;;;4.75;93.68
71299;BME280;59083;47.974;21.722;2022-11-20T16:18:57;100012.12;;;4.69;93.30
71299;BME280;59083;47.974;21.722;2022-11-20T16:21:58;100007.22;;;4.74;92.60
71299;BME280;59083;47.974;21.722;2022-11-20T16:25:02;100005.72;;;4.71;92.04
71299;BME280;59083;47.974;21.722;2022-11-20T16:28:03;100006.84;;;4.69;91.95
71299;BME280;59083;47.974;21.722;2022-11-20T16:31:16;100002.75;;;4.66;91.88
71299;BME280;59083;47.974;21.722;2022-11-20T16:34:18;100009.91;;;4.48;92.02
71299;BME280;59083;47.974;21.722;2022-11-20T16:37:19;100001.94;;;4.40;92.07
71299;BME280;59083;47.974;21.722;2022-11-20T16:40:21;100003.72;;;4.31;92.31
71299;BME280;59083;47.974;21.722;2022-11-20T16:43:23;100010.03;;;4.12;92.75
71299;BME280;59083;47.974;21.722;2022-11-20T16:46:27;100014.81;;;4.09;92.90
71299;BME280;59083;47.974;21.722;2022-11-20T16:49:28;100003.81;;;3.96;93.21
71299;BME280;59083;47.974;21.722;2022-11-20T16:52:30;100012.69;;;3.87;93.58
71299;BME280;59083;47.974;21.722;2022-11-20T16:55:31;100016.06;;;3.79;93.97
71299;BME280;59083;47.974;21.722;2022-11-20T16:58:32;100012.91;;;3.76;94.42
71299;BME280;59083;47.974;21.722;2022-11-20T17:01:33;99999.66;;;3.67;94.75
71299;BME280;59083;47.974;21.722;2022-11-20T17:04:38;99985.16;;;3.63;95.24
71299;BME280;59083;47.974;21.722;2022-11-20T17:07:39;99998.25;;;3.55;95.46
71299;BME280;59083;47.974;21.722;2022-11-20T17:10:41;99999.69;;;3.50;95.59
71299;BME280;59083;47.974;21.722;2022-11-20T17:13:42;99994.03;;;3.45;96.06
71299;BME280;59083;47.974;21.722;2022-11-20T17:16:44;99991.72;;;3.42;96.10
71299;BME280;59083;47.974;21.722;2022-11-20T17:19:45;100004.34;;;3.38;96.07
71299;BME280;59083;47.974;21.722;2022-11-20T17:22:46;100009.63;;;3.38;96.06